<?xml version="1.0" encoding="UTF-8" standalone="no" ?>
<gpx xmlns="http://www.topografix.com/GPX/1/1" xmlns:xsi="http://www.w3.org/2001/XMLSchema-instance" xsi:schemaLocation="http://www.topografix.com/GPX/1/1 http://www.topografix.com/GPX/1/1/gpx.xsd" version="1.1" creator="VisuGPX - https://www.visugpx.com">
  <metadata>
    <name>3170593-Vallée de la Louette</name>
  </metadata>
  <trk>
    <name><![CDATA[3170593-Vallée de la Louette]]></name>
    <trkseg>
      <trkpt lat="48.43198" lon="2.0774">
        <ele>85</ele>
        <time>2022-10-11T07:40:44Z</time>
      </trkpt>
      <trkpt lat="48.43108" lon="2.07896">
        <ele>85</ele>
        <time>2022-10-11T07:43:47Z</time>
      </trkpt>
      <trkpt lat="48.43061" lon="2.08216">
        <ele>91</ele>
        <time>2022-10-11T07:48:37Z</time>
      </trkpt>
      <trkpt lat="48.43096" lon="2.0856">
        <ele>85</ele>
        <time>2022-10-11T07:53:45Z</time>
      </trkpt>
      <trkpt lat="48.43084" lon="2.08769">
        <ele>82</ele>
        <time>2022-10-11T07:56:51Z</time>
      </trkpt>
      <trkpt lat="48.42993" lon="2.09127">
        <ele>86</ele>
        <time>2022-10-11T08:02:31Z</time>
      </trkpt>
      <trkpt lat="48.42928" lon="2.09339">
        <ele>87</ele>
        <time>2022-10-11T08:05:57Z</time>
      </trkpt>
      <trkpt lat="48.42856" lon="2.09699">
        <ele>92</ele>
        <time>2022-10-11T08:11:30Z</time>
      </trkpt>
      <trkpt lat="48.42838" lon="2.09879">
        <ele>89</ele>
        <time>2022-10-11T08:14:12Z</time>
      </trkpt>
      <trkpt lat="48.42856" lon="2.10532">
        <ele>88</ele>
        <time>2022-10-11T08:23:50Z</time>
      </trkpt>
      <trkpt lat="48.42922" lon="2.10545">
        <ele>89</ele>
        <time>2022-10-11T08:25:19Z</time>
      </trkpt>
      <trkpt lat="48.42925" lon="2.10521">
        <ele>88</ele>
        <time>2022-10-11T08:25:41Z</time>
      </trkpt>
      <trkpt lat="48.43006" lon="2.10434">
        <ele>94</ele>
        <time>2022-10-11T08:27:53Z</time>
      </trkpt>
      <trkpt lat="48.42967" lon="2.10326">
        <ele>93</ele>
        <time>2022-10-11T08:29:42Z</time>
      </trkpt>
      <trkpt lat="48.43002" lon="2.10283">
        <ele>101</ele>
        <time>2022-10-11T08:30:43Z</time>
      </trkpt>
      <trkpt lat="48.42979" lon="2.10138">
        <ele>104</ele>
        <time>2022-10-11T08:32:55Z</time>
      </trkpt>
      <trkpt lat="48.43012" lon="2.10067">
        <ele>110</ele>
        <time>2022-10-11T08:34:11Z</time>
      </trkpt>
      <trkpt lat="48.43446" lon="2.0898">
        <ele>142</ele>
        <time>2022-10-11T08:52:55Z</time>
      </trkpt>
      <trkpt lat="48.43481" lon="2.08791">
        <ele>143</ele>
        <time>2022-10-11T08:55:48Z</time>
      </trkpt>
      <trkpt lat="48.43476" lon="2.08345">
        <ele>143</ele>
        <time>2022-10-11T09:02:23Z</time>
      </trkpt>
      <trkpt lat="48.43371" lon="2.08278">
        <ele>139</ele>
        <time>2022-10-11T09:04:55Z</time>
      </trkpt>
      <trkpt lat="48.43305" lon="2.08148">
        <ele>134</ele>
        <time>2022-10-11T09:07:20Z</time>
      </trkpt>
      <trkpt lat="48.43308" lon="2.07952">
        <ele>111</ele>
        <time>2022-10-11T09:10:14Z</time>
      </trkpt>
      <trkpt lat="48.43299" lon="2.07804">
        <ele>93</ele>
        <time>2022-10-11T09:12:26Z</time>
      </trkpt>
      <trkpt lat="48.43328" lon="2.07759">
        <ele>91</ele>
        <time>2022-10-11T09:13:21Z</time>
      </trkpt>
      <trkpt lat="48.43393" lon="2.07732">
        <ele>89</ele>
        <time>2022-10-11T09:14:51Z</time>
      </trkpt>
      <trkpt lat="48.43473" lon="2.07727">
        <ele>97</ele>
        <time>2022-10-11T09:16:38Z</time>
      </trkpt>
      <trkpt lat="48.43542" lon="2.07789">
        <ele>105</ele>
        <time>2022-10-11T09:18:25Z</time>
      </trkpt>
      <trkpt lat="48.43736" lon="2.07851">
        <ele>128</ele>
        <time>2022-10-11T09:22:50Z</time>
      </trkpt>
      <trkpt lat="48.43798" lon="2.07838">
        <ele>138</ele>
        <time>2022-10-11T09:24:13Z</time>
      </trkpt>
      <trkpt lat="48.43867" lon="2.07762">
        <ele>145</ele>
        <time>2022-10-11T09:26:07Z</time>
      </trkpt>
      <trkpt lat="48.44014" lon="2.07636">
        <ele>145</ele>
        <time>2022-10-11T09:29:53Z</time>
      </trkpt>
      <trkpt lat="48.44012" lon="2.07488">
        <ele>145</ele>
        <time>2022-10-11T09:32:04Z</time>
      </trkpt>
      <trkpt lat="48.44067" lon="2.07231">
        <ele>146</ele>
        <time>2022-10-11T09:36:03Z</time>
      </trkpt>
      <trkpt lat="48.44128" lon="2.07109">
        <ele>144</ele>
        <time>2022-10-11T09:38:18Z</time>
      </trkpt>
      <trkpt lat="48.4411" lon="2.06994">
        <ele>144</ele>
        <time>2022-10-11T09:40:03Z</time>
      </trkpt>
      <trkpt lat="48.44013" lon="2.06876">
        <ele>129</ele>
        <time>2022-10-11T09:42:49Z</time>
      </trkpt>
      <trkpt lat="48.4401" lon="2.06783">
        <ele>121</ele>
        <time>2022-10-11T09:44:12Z</time>
      </trkpt>
      <trkpt lat="48.43997" lon="2.06717">
        <ele>114</ele>
        <time>2022-10-11T09:45:13Z</time>
      </trkpt>
      <trkpt lat="48.43947" lon="2.06612">
        <ele>100</ele>
        <time>2022-10-11T09:47:07Z</time>
      </trkpt>
      <trkpt lat="48.43944" lon="2.06427">
        <ele>96</ele>
        <time>2022-10-11T09:49:51Z</time>
      </trkpt>
      <trkpt lat="48.43855" lon="2.06409">
        <ele>89</ele>
        <time>2022-10-11T09:51:51Z</time>
      </trkpt>
      <trkpt lat="48.4385" lon="2.06391">
        <ele>89</ele>
        <time>2022-10-11T09:52:08Z</time>
      </trkpt>
      <trkpt lat="48.43827" lon="2.06326">
        <ele>89</ele>
        <time>2022-10-11T09:53:13Z</time>
      </trkpt>
      <trkpt lat="48.43743" lon="2.06374">
        <ele>91</ele>
        <time>2022-10-11T09:55:13Z</time>
      </trkpt>
      <trkpt lat="48.43684" lon="2.06369">
        <ele>93</ele>
        <time>2022-10-11T09:56:32Z</time>
      </trkpt>
      <trkpt lat="48.4365" lon="2.06356">
        <ele>96</ele>
        <time>2022-10-11T09:57:19Z</time>
      </trkpt>
      <trkpt lat="48.43717" lon="2.06226">
        <ele>109</ele>
        <time>2022-10-11T09:59:45Z</time>
      </trkpt>
      <trkpt lat="48.43787" lon="2.05976">
        <ele>138</ele>
        <time>2022-10-11T10:03:45Z</time>
      </trkpt>
      <trkpt lat="48.43798" lon="2.05711">
        <ele>142</ele>
        <time>2022-10-11T10:07:40Z</time>
      </trkpt>
      <trkpt lat="48.43783" lon="2.05573">
        <ele>144</ele>
        <time>2022-10-11T10:09:44Z</time>
      </trkpt>
      <trkpt lat="48.43785" lon="2.05502">
        <ele>145</ele>
        <time>2022-10-11T10:10:47Z</time>
      </trkpt>
      <trkpt lat="48.44049" lon="2.05506">
        <ele>136</ele>
        <time>2022-10-11T10:16:39Z</time>
      </trkpt>
      <trkpt lat="48.44107" lon="2.05514">
        <ele>138</ele>
        <time>2022-10-11T10:17:57Z</time>
      </trkpt>
      <trkpt lat="48.44176" lon="2.05595">
        <ele>142</ele>
        <time>2022-10-11T10:19:53Z</time>
      </trkpt>
      <trkpt lat="48.44283" lon="2.05789">
        <ele>133</ele>
        <time>2022-10-11T10:23:37Z</time>
      </trkpt>
      <trkpt lat="48.44323" lon="2.05816">
        <ele>132</ele>
        <time>2022-10-11T10:24:35Z</time>
      </trkpt>
      <trkpt lat="48.44436" lon="2.0573">
        <ele>128</ele>
        <time>2022-10-11T10:27:24Z</time>
      </trkpt>
      <trkpt lat="48.44514" lon="2.05654">
        <ele>122</ele>
        <time>2022-10-11T10:29:28Z</time>
      </trkpt>
      <trkpt lat="48.44642" lon="2.05596">
        <ele>110</ele>
        <time>2022-10-11T10:32:26Z</time>
      </trkpt>
      <trkpt lat="48.44548" lon="2.05789">
        <ele>110</ele>
        <time>2022-10-11T10:35:58Z</time>
      </trkpt>
      <trkpt lat="48.44478" lon="2.05901">
        <ele>110</ele>
        <time>2022-10-11T10:38:15Z</time>
      </trkpt>
      <trkpt lat="48.44388" lon="2.05996">
        <ele>106</ele>
        <time>2022-10-11T10:40:41Z</time>
      </trkpt>
      <trkpt lat="48.44239" lon="2.0611">
        <ele>105</ele>
        <time>2022-10-11T10:44:24Z</time>
      </trkpt>
      <trkpt lat="48.4404" lon="2.06248">
        <ele>96</ele>
        <time>2022-10-11T10:49:16Z</time>
      </trkpt>
      <trkpt lat="48.43864" lon="2.06375">
        <ele>89</ele>
        <time>2022-10-11T10:53:37Z</time>
      </trkpt>
      <trkpt lat="48.43823" lon="2.06407">
        <ele>88</ele>
        <time>2022-10-11T10:54:38Z</time>
      </trkpt>
      <trkpt lat="48.4374" lon="2.06496">
        <ele>85</ele>
        <time>2022-10-11T10:56:54Z</time>
      </trkpt>
      <trkpt lat="48.43652" lon="2.06629">
        <ele>85</ele>
        <time>2022-10-11T10:59:41Z</time>
      </trkpt>
      <trkpt lat="48.43591" lon="2.06777">
        <ele>90</ele>
        <time>2022-10-11T11:02:15Z</time>
      </trkpt>
      <trkpt lat="48.4348" lon="2.07187">
        <ele>86</ele>
        <time>2022-10-11T11:08:47Z</time>
      </trkpt>
      <trkpt lat="48.43383" lon="2.07438">
        <ele>84</ele>
        <time>2022-10-11T11:13:04Z</time>
      </trkpt>
      <trkpt lat="48.43328" lon="2.07534">
        <ele>83</ele>
        <time>2022-10-11T11:14:56Z</time>
      </trkpt>
      <trkpt lat="48.43217" lon="2.07708">
        <ele>84</ele>
        <time>2022-10-11T11:18:30Z</time>
      </trkpt>
    </trkseg>
  </trk>
</gpx>